createdAt,value
2018-08-09T00:00:05.143Z,4.00
2018-08-09T00:02:33.779Z,3.20
2018-08-09T00:05:02.188Z,2.10
2018-08-09T00:07:30.585Z,3.13
2018-08-09T00:10:02.247Z,2.83
2018-08-09T00:12:31.211Z,2.27
2018-08-09T00:15:00.535Z,3.90
2018-08-09T00:17:29.565Z,3.50
2018-08-09T00:19:59.219Z,3.60
2018-08-09T00:22:28.977Z,4.70
2018-08-09T00:24:57.470Z,3.70
2018-08-09T00:27:25.846Z,3.70
2018-08-09T00:29:54.235Z,3.33
2018-08-09T00:32:22.591Z,3.17
2018-08-09T00:34:51.059Z,3.93
2018-08-09T00:37:19.782Z,3.00
2018-08-09T00:39:48.442Z,2.77
2018-08-09T00:42:17.182Z,3.00
2018-08-09T00:44:46.115Z,3.00
2018-08-09T00:47:14.726Z,3.33
2018-08-09T00:49:43.454Z,3.70
2018-08-09T00:52:11.835Z,3.87
2018-08-09T00:54:40.443Z,3.20
2018-08-09T00:57:09.965Z,3.70
2018-08-09T00:59:39.147Z,3.20
2018-08-09T01:02:08.582Z,3.23
2018-08-09T01:04:36.966Z,3.20
2018-08-09T01:07:06.046Z,4.17
2018-08-09T01:09:34.736Z,3.37
2018-08-09T01:12:03.112Z,4.00
2018-08-09T01:14:32.079Z,3.43
2018-08-09T01:17:01.687Z,2.50
2018-08-09T01:19:30.063Z,2.83
2018-08-09T01:21:58.716Z,3.07
2018-08-09T01:24:27.110Z,3.30
2018-08-09T01:26:56.020Z,3.33
2018-08-09T01:29:24.380Z,3.27
2018-08-09T01:31:53.088Z,2.40
2018-08-09T01:34:21.538Z,2.87
2018-08-09T01:36:50.806Z,3.87
2018-08-09T01:39:19.482Z,3.40
2018-08-09T01:41:59.151Z,2.67
2018-08-09T01:44:27.498Z,3.20
2018-08-09T01:46:56.228Z,3.93
2018-08-09T01:49:24.634Z,3.73
2018-08-09T01:51:53.031Z,3.43
2018-08-09T01:54:21.383Z,3.00
2018-08-09T01:56:50.095Z,2.63
2018-08-09T01:59:18.712Z,2.83
2018-08-09T02:01:47.414Z,3.20
2018-08-09T02:04:15.794Z,2.97
2018-08-09T02:06:44.735Z,2.80
2018-08-09T02:09:17.306Z,3.00
2018-08-09T02:11:46.085Z,3.57
2018-08-09T02:14:14.142Z,3.43
2018-08-09T02:16:43.058Z,3.83
2018-08-09T02:19:11.624Z,3.60
2018-08-09T02:21:40.274Z,3.03
2018-08-09T02:24:08.686Z,3.37
2018-08-09T02:26:37.102Z,3.07
2018-08-09T02:29:05.487Z,3.90
2018-08-09T02:31:34.275Z,3.67
2018-08-09T02:34:02.963Z,3.00
2018-08-09T02:36:31.335Z,3.70
2018-08-09T02:39:00.020Z,3.50
2018-08-09T02:41:28.975Z,3.70
2018-08-09T02:43:57.331Z,3.60
2018-08-09T02:46:26.031Z,3.73
2018-08-09T02:48:54.394Z,3.80
2018-08-09T02:51:22.770Z,4.90
2018-08-09T02:53:51.130Z,3.20
2018-08-09T02:56:19.523Z,3.50
2018-08-09T02:58:47.878Z,3.13
2018-08-09T03:01:19.022Z,3.27
2018-08-09T03:03:48.901Z,4.60
2018-08-09T03:06:18.925Z,4.70
2018-08-09T03:08:47.687Z,3.90
2018-08-09T03:11:16.083Z,4.33
2018-08-09T03:13:44.488Z,3.93
2018-08-09T03:16:13.171Z,3.10
2018-08-09T03:18:42.194Z,3.93
2018-08-09T03:21:10.955Z,2.90
2018-08-09T03:23:39.314Z,3.63
2018-08-09T03:26:08.027Z,3.67
2018-08-09T03:28:36.403Z,4.67
2018-08-09T03:31:04.867Z,3.80
2018-08-09T03:33:33.235Z,3.60
2018-08-09T03:36:01.988Z,3.77
2018-08-09T03:38:30.416Z,4.17
2018-08-09T03:40:58.798Z,4.07
2018-08-09T03:43:27.850Z,3.93
2018-08-09T03:45:56.798Z,3.60
2018-08-09T03:48:25.527Z,4.80
2018-08-09T03:50:53.899Z,4.47
2018-08-09T03:53:22.258Z,4.30
2018-08-09T03:55:50.883Z,5.03
2018-08-09T03:58:19.307Z,3.67
2018-08-09T04:00:47.956Z,4.60
2018-08-09T04:03:17.659Z,3.67
2018-08-09T04:05:46.223Z,3.90
2018-08-09T04:08:15.739Z,3.67
2018-08-09T04:10:44.158Z,3.50
2018-08-09T04:13:12.790Z,3.90
2018-08-09T04:15:41.438Z,3.70
2018-08-09T04:18:09.827Z,4.10
2018-08-09T04:20:39.064Z,3.60
2018-08-09T04:23:07.427Z,3.63
2018-08-09T04:25:35.795Z,3.63
2018-08-09T04:28:04.902Z,5.00
2018-08-09T04:30:33.263Z,3.40
2018-08-09T04:33:01.649Z,3.67
2018-08-09T04:35:30.040Z,3.70
2018-08-09T04:37:58.491Z,3.63
2018-08-09T04:40:26.788Z,4.37
2018-08-09T04:42:55.459Z,4.60
2018-08-09T04:45:23.819Z,3.90
2018-08-09T04:47:52.175Z,4.00
2018-08-09T04:50:23.268Z,4.97
2018-08-09T04:52:51.671Z,3.63
2018-08-09T04:55:20.019Z,3.63
2018-08-09T04:57:48.410Z,3.10
2018-08-09T05:00:17.110Z,4.43
2018-08-09T05:02:45.804Z,3.60
2018-08-09T05:05:14.570Z,2.90
2018-08-09T05:07:42.969Z,3.30
2018-08-09T05:10:11.783Z,3.50
2018-08-09T05:12:42.088Z,3.30
2018-08-09T05:15:11.167Z,3.97
2018-08-09T05:17:39.781Z,3.60
2018-08-09T05:20:08.190Z,3.80
2018-08-09T05:22:37.182Z,3.73
2018-08-09T05:25:06.422Z,3.60
2018-08-09T05:27:35.650Z,3.83
2018-08-09T05:30:05.467Z,3.33
2018-08-09T05:32:34.104Z,3.23
2018-08-09T05:35:02.814Z,2.50
2018-08-09T05:37:31.195Z,3.90
2018-08-09T05:40:00.399Z,3.60
2018-08-09T05:42:28.826Z,3.43
2018-08-09T05:44:57.191Z,3.90
2018-08-09T05:47:26.087Z,4.20
2018-08-09T05:49:54.458Z,4.40
2018-08-09T05:52:23.490Z,3.17
2018-08-09T05:54:52.127Z,4.17
2018-08-09T05:57:21.398Z,4.33
2018-08-09T05:59:49.767Z,4.07
2018-08-09T06:02:18.155Z,3.63
2018-08-09T06:04:46.556Z,4.87
2018-08-09T06:07:14.915Z,3.83
2018-08-09T06:09:43.282Z,3.20
2018-08-09T06:12:11.662Z,2.87
2018-08-09T06:14:40.036Z,3.47
2018-08-09T06:17:09.024Z,3.43
2018-08-09T06:19:37.494Z,3.27
2018-08-09T06:22:06.250Z,2.73
2018-08-09T06:24:34.654Z,4.03
2018-08-09T06:27:03.374Z,3.93
2018-08-09T06:29:32.028Z,2.90
2018-08-09T06:32:00.479Z,3.90
2018-08-09T06:34:29.605Z,3.57
2018-08-09T06:36:57.987Z,4.17
2018-08-09T06:39:27.167Z,4.00
2018-08-09T06:41:55.639Z,3.07
2018-08-09T06:44:24.011Z,3.77
2018-08-09T06:46:52.434Z,3.10
2018-08-09T06:49:21.593Z,4.10
2018-08-09T06:51:50.166Z,3.50
2018-08-09T06:54:18.787Z,3.67
2018-08-09T06:56:47.459Z,3.63
2018-08-09T06:59:16.115Z,3.60
2018-08-09T07:01:44.486Z,3.80
2018-08-09T07:04:12.879Z,3.53
2018-08-09T07:06:41.566Z,3.70
2018-08-09T07:09:10.910Z,3.87
2018-08-09T07:11:39.266Z,3.70
2018-08-09T07:14:07.882Z,4.70
2018-08-09T07:16:36.545Z,4.60
2018-08-09T07:19:04.981Z,3.23
2018-08-09T07:21:33.411Z,3.53
2018-08-09T07:24:02.291Z,4.07
2018-08-09T07:26:30.755Z,4.37
2018-08-09T07:28:59.351Z,2.50
2018-08-09T07:31:28.255Z,3.47
2018-08-09T07:33:56.927Z,3.57
2018-08-09T07:36:25.950Z,3.67
2018-08-09T07:38:54.306Z,2.60
2018-08-09T07:41:22.679Z,3.07
2018-08-09T07:43:51.283Z,3.20
2018-08-09T07:46:19.678Z,4.30
2018-08-09T07:48:48.624Z,3.60
2018-08-09T07:51:17.523Z,3.63
2018-08-09T07:53:45.594Z,4.80
2018-08-09T07:56:13.986Z,4.40
2018-08-09T07:58:42.643Z,4.00
2018-08-09T08:01:11.315Z,4.40
2018-08-09T08:03:39.979Z,4.60
2018-08-09T08:06:08.661Z,3.70
2018-08-09T08:08:37.651Z,4.70
2018-08-09T08:11:06.094Z,4.30
2018-08-09T08:13:34.614Z,3.73
2018-08-09T08:16:03.034Z,4.50
2018-08-09T08:18:31.441Z,3.80
2018-08-09T08:21:00.111Z,3.77
2018-08-09T08:23:28.801Z,3.60
2018-08-09T08:25:57.446Z,3.30
2018-08-09T08:28:26.763Z,3.23
2018-08-09T08:30:55.070Z,4.30
2018-08-09T08:33:23.447Z,3.43
2018-08-09T08:35:51.815Z,3.03
2018-08-09T08:38:20.962Z,3.27
2018-08-09T08:40:49.315Z,2.80
2018-08-09T08:43:18.021Z,2.60
2018-08-09T08:45:46.465Z,3.10
2018-08-09T08:48:14.842Z,3.57
2018-08-09T08:50:43.277Z,3.10
2018-08-09T08:53:11.750Z,3.27
2018-08-09T08:55:40.346Z,3.23
2018-08-09T08:58:09.543Z,3.20
2018-08-09T09:00:38.894Z,3.03
2018-08-09T09:03:08.087Z,3.03
2018-08-09T09:05:36.479Z,3.03
2018-08-09T09:08:05.455Z,3.80
2018-08-09T09:10:34.154Z,3.27
2018-08-09T09:13:03.287Z,2.70
2018-08-09T09:15:31.698Z,3.40
2018-08-09T09:18:00.152Z,2.70
2018-08-09T09:20:28.514Z,2.47
2018-08-09T09:22:57.250Z,3.33
2018-08-09T09:25:25.667Z,3.20
2018-08-09T09:27:54.083Z,3.33
2018-08-09T09:30:23.100Z,2.80
2018-08-09T09:32:51.554Z,2.27
2018-08-09T09:35:19.938Z,2.80
2018-08-09T09:37:48.550Z,2.37
2018-08-09T09:40:17.203Z,3.70
2018-08-09T09:42:45.854Z,2.60
2018-08-09T09:45:14.298Z,3.03
2018-08-09T09:47:43.602Z,2.30
2018-08-09T09:50:13.161Z,2.60
2018-08-09T09:52:41.582Z,2.63
2018-08-09T09:55:09.989Z,3.10
2018-08-09T09:57:38.682Z,2.97
2018-08-09T10:00:12.495Z,2.63
2018-08-09T10:02:40.864Z,2.43
2018-08-09T10:05:10.224Z,2.23
2018-08-09T10:07:39.041Z,2.80
2018-08-09T10:10:07.826Z,2.93
2018-08-09T10:12:36.240Z,2.10
2018-08-09T10:15:05.006Z,2.67
2018-08-09T10:17:33.635Z,2.27
2018-08-09T10:20:02.511Z,3.00
2018-08-09T10:22:31.371Z,2.60
2018-08-09T10:25:00.093Z,2.47
2018-08-09T10:27:28.711Z,3.10
2018-08-09T10:29:57.176Z,2.40
2018-08-09T10:32:25.823Z,2.40
2018-08-09T10:34:54.459Z,3.10
2018-08-09T10:37:23.146Z,2.33
2018-08-09T10:39:51.511Z,3.23
2018-08-09T10:42:20.115Z,1.90
2018-08-09T10:44:48.462Z,3.67
2018-08-09T10:47:18.034Z,3.37
2018-08-09T10:49:47.351Z,3.00
2018-08-09T10:52:15.987Z,3.03
2018-08-09T10:54:44.690Z,2.67
2018-08-09T10:57:13.437Z,2.87
2018-08-09T10:59:42.135Z,2.70
2018-08-09T11:02:10.819Z,2.73
2018-08-09T11:04:39.482Z,2.97
2018-08-09T11:07:08.195Z,3.10
2018-08-09T11:09:36.907Z,3.37
2018-08-09T11:12:06.035Z,2.60
2018-08-09T11:14:34.402Z,3.07
2018-08-09T11:17:03.358Z,3.00
2018-08-09T11:19:31.730Z,3.13
2018-08-09T11:22:00.611Z,3.27
2018-08-09T11:24:28.984Z,2.60
2018-08-09T11:26:57.371Z,3.00
2018-08-09T11:29:26.066Z,2.60
2018-08-09T11:31:54.447Z,3.33
2018-08-09T11:34:23.146Z,3.47
2018-08-09T11:36:51.557Z,3.37
2018-08-09T11:39:20.206Z,3.20
2018-08-09T11:41:48.575Z,3.00
2018-08-09T11:44:16.963Z,2.77
2018-08-09T11:46:45.335Z,2.70
2018-08-09T11:49:13.734Z,3.50
2018-08-09T11:51:42.088Z,3.17
2018-08-09T11:54:11.019Z,3.00
2018-08-09T11:56:40.057Z,2.97
2018-08-09T11:59:08.742Z,3.83
2018-08-09T12:01:37.250Z,3.03
2018-08-09T12:04:05.868Z,2.93
2018-08-09T12:06:34.234Z,2.23
2018-08-09T12:09:02.663Z,2.33
2018-08-09T12:11:31.182Z,2.70
2018-08-09T12:13:59.579Z,3.60
2018-08-09T12:16:28.004Z,3.03
2018-08-09T12:18:56.390Z,2.43
2018-08-09T12:21:25.680Z,2.33
2018-08-09T12:23:54.370Z,2.37
2018-08-09T12:26:23.267Z,3.00
2018-08-09T12:28:51.947Z,2.57
2018-08-09T12:31:20.345Z,2.70
2018-08-09T12:33:49.279Z,2.27
2018-08-09T12:36:17.910Z,2.80
2018-08-09T12:38:46.523Z,2.90
2018-08-09T12:41:14.961Z,2.60
2018-08-09T12:43:43.370Z,2.37
2018-08-09T12:46:12.356Z,2.57
2018-08-09T12:48:40.958Z,3.40
2018-08-09T12:51:09.631Z,3.17
2018-08-09T12:53:38.391Z,2.60
2018-08-09T12:56:07.099Z,2.97
2018-08-09T12:58:36.198Z,2.20
2018-08-09T13:01:04.610Z,3.00
2018-08-09T13:03:33.363Z,2.57
2018-08-09T13:06:02.770Z,2.60
2018-08-09T13:08:31.426Z,2.97
2018-08-09T13:11:00.217Z,3.00
2018-08-09T13:13:28.626Z,2.13
2018-08-09T13:15:57.071Z,2.60
2018-08-09T13:18:25.714Z,3.13
2018-08-09T13:20:54.740Z,2.50
2018-08-09T13:23:23.171Z,3.27
2018-08-09T13:25:51.682Z,2.40
2018-08-09T13:28:20.715Z,2.60
2018-08-09T13:30:49.422Z,3.20
2018-08-09T13:33:17.882Z,2.50
2018-08-09T13:35:46.315Z,2.60
2018-08-09T13:38:14.971Z,2.73
2018-08-09T13:40:43.387Z,2.80
2018-08-09T13:43:11.808Z,2.50
2018-08-09T13:45:41.719Z,1.97
2018-08-09T13:48:10.424Z,1.93
2018-08-09T13:50:38.868Z,1.47
2018-08-09T13:53:07.524Z,2.33
2018-08-09T13:55:36.634Z,1.63
2018-08-09T13:58:05.643Z,1.27
2018-08-09T14:00:34.786Z,1.50
2018-08-09T14:03:03.212Z,1.60
2018-08-09T14:05:31.709Z,1.77
2018-08-09T14:08:00.167Z,1.33
2018-08-09T14:10:28.974Z,2.27
2018-08-09T14:12:58.036Z,1.80
2018-08-09T14:15:26.788Z,2.40
2018-08-09T14:17:56.175Z,1.80
2018-08-09T14:20:25.069Z,2.00
2018-08-09T14:22:53.869Z,2.00
2018-08-09T14:25:22.294Z,2.00
2018-08-09T14:27:50.984Z,1.70
2018-08-09T14:30:19.696Z,1.73
2018-08-09T14:32:48.286Z,2.20
2018-08-09T14:35:17.363Z,1.97
2018-08-09T14:37:46.617Z,1.80
2018-08-09T14:40:15.659Z,1.80
2018-08-09T14:42:44.175Z,1.83
2018-08-09T14:45:14.802Z,1.43
2018-08-09T14:47:43.249Z,1.57
2018-08-09T14:50:11.643Z,1.80
2018-08-09T14:52:40.067Z,1.80
2018-08-09T14:55:10.348Z,1.97
2018-08-09T14:57:39.118Z,2.47
2018-08-09T15:00:10.978Z,1.90
2018-08-09T15:02:39.971Z,2.03
2018-08-09T15:05:08.414Z,1.47
2018-08-09T15:07:36.961Z,1.50
2018-08-09T15:10:05.644Z,2.00
2018-08-09T15:12:34.443Z,1.97
2018-08-09T15:15:03.403Z,1.20
2018-08-09T15:17:32.523Z,1.97
2018-08-09T15:20:01.186Z,1.70
2018-08-09T15:22:29.921Z,2.00
2018-08-09T15:24:58.851Z,1.70
2018-08-09T15:27:27.543Z,1.40
2018-08-09T15:29:56.239Z,1.47
2018-08-09T15:32:25.017Z,1.50
2018-08-09T15:34:53.698Z,1.60
2018-08-09T15:37:22.099Z,1.57
2018-08-09T15:39:50.499Z,2.20
2018-08-09T15:42:19.470Z,2.07
2018-08-09T15:44:48.147Z,1.63
2018-08-09T15:47:17.384Z,1.90
2018-08-09T15:49:46.843Z,2.57
2018-08-09T15:52:15.550Z,1.40
2018-08-09T15:54:45.131Z,2.40
2018-08-09T15:57:14.853Z,2.70
2018-08-09T15:59:43.958Z,2.30
2018-08-09T16:02:13.043Z,1.97
2018-08-09T16:04:41.491Z,2.03
2018-08-09T16:07:09.871Z,2.27
2018-08-09T16:09:38.576Z,2.87
2018-08-09T16:12:07.707Z,2.77
2018-08-09T16:14:36.375Z,2.00
2018-08-09T16:17:04.755Z,2.30
2018-08-09T16:19:33.151Z,2.00
2018-08-09T16:22:01.822Z,2.13
2018-08-09T16:24:30.555Z,1.77
2018-08-09T16:27:00.108Z,1.90
2018-08-09T16:29:29.135Z,2.27
2018-08-09T16:31:58.447Z,1.60
2018-08-09T16:34:27.095Z,2.00
2018-08-09T16:36:55.795Z,2.17
2018-08-09T16:39:24.642Z,2.10
2018-08-09T16:41:53.532Z,1.70
2018-08-09T16:44:22.458Z,1.97
2018-08-09T16:46:50.943Z,1.63
2018-08-09T16:49:19.655Z,2.10
2018-08-09T16:51:48.283Z,2.43
2018-08-09T16:54:16.699Z,2.70
2018-08-09T16:56:45.235Z,1.60
2018-08-09T16:59:13.626Z,1.90
2018-08-09T17:01:42.047Z,2.60
2018-08-09T17:04:11.187Z,2.20
2018-08-09T17:06:39.603Z,1.80
2018-08-09T17:09:11.464Z,2.57
2018-08-09T17:11:43.832Z,2.07
2018-08-09T17:14:13.866Z,2.30
2018-08-09T17:16:43.615Z,2.67
2018-08-09T17:19:12.342Z,2.13
2018-08-09T17:21:41.815Z,2.83
2018-08-09T17:24:11.267Z,2.60
2018-08-09T17:26:40.135Z,1.97
2018-08-09T17:29:09.457Z,2.70
2018-08-09T17:31:37.928Z,1.80
2018-08-09T17:34:06.371Z,1.90
2018-08-09T17:36:34.803Z,2.30
2018-08-09T17:39:03.567Z,2.67
2018-08-09T17:41:31.991Z,2.17
2018-08-09T17:44:01.008Z,1.97
2018-08-09T17:46:30.506Z,2.27
2018-08-09T17:48:58.867Z,2.07
2018-08-09T17:51:27.668Z,1.80
2018-08-09T17:53:56.031Z,1.90
2018-08-09T17:56:24.458Z,2.30
2018-08-09T17:58:52.935Z,2.13
2018-08-09T18:01:21.355Z,2.10
2018-08-09T18:03:50.108Z,2.03
2018-08-09T18:06:18.562Z,1.90
2018-08-09T18:08:47.463Z,2.33
2018-08-09T18:11:16.491Z,1.97
2018-08-09T18:13:45.299Z,2.73
2018-08-09T18:16:13.971Z,2.80
2018-08-09T18:18:42.351Z,3.17
2018-08-09T18:21:11.082Z,3.43
2018-08-09T18:23:39.945Z,2.50
2018-08-09T18:26:08.395Z,2.70
2018-08-09T18:28:37.319Z,2.87
2018-08-09T18:31:06.196Z,1.97
2018-08-09T18:33:35.738Z,1.97
2018-08-09T18:36:04.427Z,2.00
2018-08-09T18:38:32.807Z,2.40
2018-08-09T18:41:08.016Z,2.03
2018-08-09T18:43:36.453Z,1.67
2018-08-09T18:46:05.366Z,2.20
2018-08-09T18:48:33.753Z,1.63
2018-08-09T18:51:02.175Z,1.10
2018-08-09T18:53:31.191Z,1.20
2018-08-09T18:55:59.644Z,1.67
2018-08-09T18:58:28.546Z,1.80
2018-08-09T19:00:57.031Z,1.03
2018-08-09T19:03:25.699Z,1.27
2018-08-09T19:05:54.167Z,1.90
2018-08-09T19:08:22.547Z,1.67
2018-08-09T19:10:50.919Z,1.57
2018-08-09T19:13:19.787Z,1.50
2018-08-09T19:15:48.635Z,1.70
2018-08-09T19:18:17.264Z,1.90
2018-08-09T19:20:45.971Z,1.83
2018-08-09T19:23:14.694Z,1.37
2018-08-09T19:25:43.439Z,1.40
2018-08-09T19:28:11.822Z,1.77
2018-08-09T19:30:40.879Z,1.33
2018-08-09T19:33:16.084Z,1.10
2018-08-09T19:35:44.743Z,1.13
2018-08-09T19:38:14.380Z,1.30
2018-08-09T19:40:42.855Z,1.50
2018-08-09T19:43:11.287Z,1.17
2018-08-09T19:45:39.695Z,1.50
2018-08-09T19:48:08.075Z,1.23
2018-08-09T19:50:36.550Z,1.47
2018-08-09T19:53:05.252Z,1.73
2018-08-09T19:55:33.699Z,1.63
2018-08-09T19:58:02.763Z,1.70
2018-08-09T20:00:31.747Z,1.40
2018-08-09T20:03:00.453Z,1.90
2018-08-09T20:05:28.902Z,2.03
2018-08-09T20:07:57.859Z,2.17
2018-08-09T20:10:26.308Z,1.90
2018-08-09T20:12:55.064Z,1.83
2018-08-09T20:15:27.088Z,1.80
2018-08-09T20:17:55.543Z,1.50
2018-08-09T20:20:26.008Z,1.63
2018-08-09T20:22:54.873Z,1.67
2018-08-09T20:25:23.259Z,1.67
2018-08-09T20:27:51.806Z,2.07
2018-08-09T20:30:20.379Z,2.50
2018-08-09T20:32:49.966Z,1.87
2018-08-09T20:35:20.902Z,1.90
2018-08-09T20:37:49.916Z,2.03
2018-08-09T20:40:19.191Z,3.23
2018-08-09T20:42:48.635Z,1.27
2018-08-09T20:45:19.002Z,1.90
2018-08-09T20:47:48.323Z,1.47
2018-08-09T20:50:21.412Z,2.30
2018-08-09T20:52:50.311Z,2.27
2018-08-09T20:55:18.786Z,2.00
2018-08-09T20:57:48.835Z,2.00
2018-08-09T21:00:22.967Z,1.90
2018-08-09T21:02:52.751Z,1.60
2018-08-09T21:05:27.883Z,1.90
2018-08-09T21:07:56.699Z,1.90
2018-08-09T21:10:25.891Z,1.63
2018-08-09T21:12:54.334Z,1.67
2018-08-09T21:15:22.800Z,2.03
2018-08-09T21:17:51.427Z,1.80
2018-08-09T21:20:19.917Z,2.20
2018-08-09T21:22:49.213Z,1.97
2018-08-09T21:25:17.758Z,1.80
2018-08-09T21:27:47.398Z,1.97
2018-08-09T21:30:21.764Z,1.80
2018-08-09T21:32:51.083Z,2.17
2018-08-09T21:35:19.559Z,2.40
2018-08-09T21:37:48.015Z,2.70
2018-08-09T21:40:16.598Z,1.67
2018-08-09T21:42:45.628Z,2.07
2018-08-09T21:45:15.958Z,1.83
2018-08-09T21:47:45.002Z,2.23
2018-08-09T21:50:15.787Z,2.47
2018-08-09T21:52:44.643Z,1.90
2018-08-09T21:55:13.759Z,2.60
2018-08-09T21:57:43.588Z,2.60
2018-08-09T22:00:24.410Z,2.60
2018-08-09T22:02:53.103Z,2.43
2018-08-09T22:05:26.747Z,2.77
2018-08-09T22:08:00.739Z,2.13
2018-08-09T22:10:34.827Z,1.80
2018-08-09T22:13:09.283Z,1.80
2018-08-09T22:15:43.070Z,1.97
2018-08-09T22:18:16.811Z,2.57
2018-08-09T22:20:50.643Z,2.70
2018-08-09T22:23:19.299Z,1.77
2018-08-09T22:25:47.934Z,3.33
2018-08-09T22:28:16.327Z,2.40
2018-08-09T22:30:44.994Z,2.13
2018-08-09T22:33:13.716Z,2.83
2018-08-09T22:35:42.072Z,2.77
2018-08-09T22:38:10.479Z,2.50
2018-08-09T22:40:38.935Z,1.90
2018-08-09T22:43:07.330Z,2.10
2018-08-09T22:45:35.821Z,2.23
2018-08-09T22:48:04.565Z,2.10
2018-08-09T22:50:32.983Z,2.23
2018-08-09T22:53:01.567Z,2.00
2018-08-09T22:55:30.407Z,2.40
2018-08-09T22:57:58.806Z,3.57
2018-08-09T23:00:27.529Z,2.43
2018-08-09T23:02:56.215Z,2.03
2018-08-09T23:05:24.899Z,2.33
2018-08-09T23:07:53.539Z,2.83
2018-08-09T23:10:22.218Z,2.10
2018-08-09T23:12:50.887Z,2.30
2018-08-09T23:15:19.843Z,2.00
2018-08-09T23:17:48.230Z,2.10
2018-08-09T23:20:17.007Z,1.40
2018-08-09T23:22:45.423Z,2.13
2018-08-09T23:25:14.463Z,2.70
2018-08-09T23:27:43.635Z,1.93
2018-08-09T23:30:12.882Z,1.80
2018-08-09T23:32:41.639Z,1.77
2018-08-09T23:35:11.034Z,1.77
2018-08-09T23:37:39.715Z,1.13
2018-08-09T23:40:09.827Z,1.20
2018-08-09T23:42:39.771Z,1.53
2018-08-09T23:45:09.771Z,1.00
2018-08-09T23:47:39.308Z,1.13
2018-08-09T23:50:09.542Z,0.90
2018-08-09T23:52:38.708Z,1.03
2018-08-09T23:55:09.131Z,0.70
2018-08-09T23:57:37.546Z,1.00
